Time;durP1;ratioP1;P1;durP2;ratioP2;P2;SDS_P1;SDS_P2;PMS_P1;PMS_P2;Temp;Humidity;BMP_temperature;BMP_pressure;BME280_temperature;BME280_humidity;BME280_pressure;Samples;Min_cycle;Max_cycle;Signal;HPM_P1;HPM_P2
2023/09/10 00:00:06;;;;;;;20.60;15.13;;;;;;;;;;4915477;29;20047;-79
2023/09/10 00:02:32;;;;;;;24.20;18.15;;;;;;;;;;4932586;29;20130;-79
2023/09/10 00:04:58;;;;;;;27.88;21.13;;;;;;;;;;4916693;29;20048;-79
2023/09/10 00:07:24;;;;;;;25.77;18.85;;;;;;;;;;4916617;29;21179;-79
2023/09/10 00:09:53;;;;;;;29.00;20.33;;;;;;;;;;4944631;28;20048;-79
2023/09/10 00:12:19;;;;;;;22.40;17.73;;;;;;;;;;4926790;29;20051;-79
2023/09/10 00:14:45;;;;;;;;;;;;;;;;;;4916931;29;20110;-79
2023/09/10 00:17:12;;;;;;;24.60;17.73;;;;;;;;;;4916388;29;20216;-79
2023/09/10 00:19:38;;;;;;;24.13;17.67;;;;;;;;;;4917225;29;20302;-79
2023/09/10 00:22:04;;;;;;;;;;;;;;;;;;4917995;29;20048;-79
2023/09/10 00:24:30;;;;;;;29.05;19.70;;;;;;;;;;4933093;29;19978;-79
2023/09/10 00:26:56;;;;;;;31.05;23.00;;;;;;;;;;4901396;29;20409;-79
2023/09/10 00:29:22;;;;;;;;;;;;;;;;;;4896024;29;20130;-79
2023/09/10 00:31:48;;;;;;;38.33;25.23;;;;;;;;;;4933569;29;20009;-79
2023/09/10 00:34:14;;;;;;;27.23;21.23;;;;;;;;;;4901048;29;20405;-79
2023/09/10 00:36:40;;;;;;;28.63;21.25;;;;;;;;;;4901388;29;20059;-79
2023/09/10 00:39:07;;;;;;;26.33;20.00;;;;;;;;;;4913344;29;20147;-79
2023/09/10 00:41:33;;;;;;;27.15;19.00;;;;;;;;;;4898644;29;20044;-79
2023/09/10 00:43:59;;;;;;;26.70;19.00;;;;;;;;;;4919951;29;20055;-79
2023/09/10 00:46:25;;;;;;;;;;;;;;;;;;4917809;29;20062;-80
2023/09/10 00:48:51;;;;;;;27.80;19.20;;;;;;;;;;4917255;29;19923;-79
2023/09/10 00:51:18;;;;;;;24.67;17.95;;;;;;;;;;4915089;29;20070;-79
2023/09/10 00:53:44;;;;;;;23.88;17.08;;;;;;;;;;4913927;29;20139;-79
2023/09/10 00:56:11;;;;;;;23.63;16.20;;;;;;;;;;4913232;29;20048;-79
2023/09/10 00:58:38;;;;;;;23.33;16.90;;;;;;;;;;4915339;29;20052;-79
2023/09/10 01:01:04;;;;;;;23.30;15.77;;;;;;;;;;4900084;29;20050;-79
2023/09/10 01:03:30;;;;;;;;;;;;;;;;;;4889755;29;20048;-79
2023/09/10 01:05:57;;;;;;;24.35;17.88;;;;;;;;;;4924739;29;19924;-81
2023/09/10 01:08:23;;;;;;;25.58;17.35;;;;;;;;;;4917456;29;20486;-79
2023/09/10 01:10:52;;;;;;;25.17;18.48;;;;;;;;;;4917829;29;20057;-79
2023/09/10 01:13:31;;;;;;;26.17;18.23;;;;;;;;;;4919994;29;20051;-79
2023/09/10 01:16:04;;;;;;;25.95;19.20;;;;;;;;;;4920430;29;20054;-79
2023/09/10 01:18:30;;;;;;;28.45;20.48;;;;;;;;;;4921154;29;20140;-79
2023/09/10 01:20:56;;;;;;;;;;;;;;;;;;4937418;29;20176;-79
2023/09/10 01:23:31;;;;;;;25.60;17.67;;;;;;;;;;4920341;29;20088;-80
2023/09/10 01:25:57;;;;;;;22.63;17.75;;;;;;;;;;4920424;29;20052;-79
2023/09/10 01:28:23;;;;;;;;;;;;;;;;;;4920000;29;20047;-79
2023/09/10 01:30:49;;;;;;;28.42;18.13;;;;;;;;;;4920210;29;20276;-79
2023/09/10 01:33:15;;;;;;;;;;;;;;;;;;4918909;29;20066;-80
2023/09/10 01:35:44;;;;;;;26.52;19.02;;;;;;;;;;4917359;29;19923;-79
2023/09/10 01:38:16;;;;;;;29.13;20.08;;;;;;;;;;4916527;29;20052;-79
2023/09/10 01:40:46;;;;;;;27.92;20.52;;;;;;;;;;4917132;29;20122;-79
2023/09/10 01:43:13;;;;;;;27.60;20.98;;;;;;;;;;4916179;29;20048;-79
2023/09/10 01:45:40;;;;;;;26.08;18.67;;;;;;;;;;4917065;29;20131;-80
2023/09/10 01:48:06;;;;;;;31.27;23.02;;;;;;;;;;4916870;29;20055;-80
2023/09/10 01:50:32;;;;;;;29.80;21.13;;;;;;;;;;4920481;29;20056;-79
2023/09/10 01:52:58;;;;;;;;;;;;;;;;;;4920031;29;20122;-80
2023/09/10 01:55:25;;;;;;;30.13;21.65;;;;;;;;;;4932219;29;19923;-79
2023/09/10 01:57:52;;;;;;;31.92;22.65;;;;;;;;;;4885004;29;20075;-79
2023/09/10 02:00:18;;;;;;;33.83;23.88;;;;;;;;;;4918033;29;20119;-79
2023/09/10 02:02:44;;;;;;;;;;;;;;;;;;4903878;29;20047;-79
2023/09/10 02:05:10;;;;;;;36.10;24.02;;;;;;;;;;4935224;29;19929;-79
2023/09/10 02:07:36;;;;;;;;;;;;;;;;;;4904277;29;20056;-79
2023/09/10 02:10:03;;;;;;;40.53;27.35;;;;;;;;;;4919854;29;19933;-79
2023/09/10 02:12:29;;;;;;;36.83;24.88;;;;;;;;;;4919106;29;20500;-80
2023/09/10 02:14:55;;;;;;;;;;;;;;;;;;4919075;29;20448;-79
2023/09/10 02:17:21;;;;;;;33.47;22.52;;;;;;;;;;4916859;29;19923;-79
2023/09/10 02:19:47;;;;;;;;;;;;;;;;;;4935375;29;20043;-79
2023/09/10 02:22:13;;;;;;;35.00;23.10;;;;;;;;;;4917884;29;19946;-79
2023/09/10 02:24:39;;;;;;;;;;;;;;;;;;4916500;29;20126;-80
2023/09/10 02:27:05;;;;;;;35.53;24.58;;;;;;;;;;4934751;29;19999;-82
2023/09/10 02:29:31;;;;;;;36.83;25.95;;;;;;;;;;4902513;29;20091;-80
2023/09/10 02:31:57;;;;;;;;;;;;;;;;;;4897722;29;20135;-80
2023/09/10 02:34:23;;;;;;;39.75;28.38;;;;;;;;;;4900561;29;19991;-80
2023/09/10 02:36:49;;;;;;;43.78;30.48;;;;;;;;;;4885317;29;20056;-80
2023/09/10 02:39:15;;;;;;;38.80;27.25;;;;;;;;;;4918595;29;20073;-80
2023/09/10 02:41:43;;;;;;;;;;;;;;;;;;4919376;29;20409;-80
2023/09/10 02:44:09;;;;;;;36.38;25.77;;;;;;;;;;4906292;29;19923;-81
2023/09/10 02:46:35;;;;;;;36.22;25.45;;;;;;;;;;4891404;29;20497;-80
2023/09/10 02:49:01;;;;;;;;;;;;;;;;;;4916640;29;20581;-81
2023/09/10 02:51:28;;;;;;;27.25;18.95;;;;;;;;;;4899742;29;20010;-80
2023/09/10 02:53:55;;;;;;;23.85;18.02;;;;;;;;;;4915556;29;20056;-80
2023/09/10 02:56:20;;;;;;;;;;;;;;;;;;4887938;29;20056;-79
2023/09/10 02:58:47;;;;;;;27.00;19.90;;;;;;;;;;4918262;29;20384;-80
2023/09/10 03:01:12;;;;;;;;;;;;;;;;;;4902974;29;20044;-80
2023/09/10 03:03:38;;;;;;;31.35;21.52;;;;;;;;;;4919099;29;20271;-80
2023/09/10 03:06:04;;;;;;;;;;;;;;;;;;4919667;29;20099;-80
2023/09/10 03:08:35;;;;;;;33.25;23.95;;;;;;;;;;4933032;29;20124;-80
2023/09/10 03:11:03;;;;;;;34.60;25.23;;;;;;;;;;4918888;29;20094;-80
2023/09/10 03:13:29;;;;;;;36.63;25.48;;;;;;;;;;4921807;29;20056;-80
2023/09/10 03:15:55;;;;;;;;;;;;;;;;;;4903456;29;20501;-80
2023/09/10 03:18:21;;;;;;;34.10;24.00;;;;;;;;;;4918735;29;19978;-80
2023/09/10 03:20:48;;;;;;;35.35;23.77;;;;;;;;;;4897263;29;20191;-80
2023/09/10 03:23:13;;;;;;;;;;;;;;;;;;4884502;29;20482;-80
2023/09/10 03:25:40;;;;;;;36.15;25.75;;;;;;;;;;4899617;29;19930;-79
2023/09/10 03:28:06;;;;;;;32.58;23.70;;;;;;;;;;4918896;29;20501;-79
2023/09/10 03:30:33;;;;;;;36.95;25.88;;;;;;;;;;4933622;29;20154;-79
2023/09/10 03:32:59;;;;;;;33.03;23.40;;;;;;;;;;4917756;29;20529;-79
2023/09/10 03:35:25;;;;;;;;;;;;;;;;;;4901531;29;20251;-79
2023/09/10 03:37:51;;;;;;;28.67;20.45;;;;;;;;;;4901717;29;19923;-79
2023/09/10 03:40:17;;;;;;;24.15;18.70;;;;;;;;;;4883742;29;20086;-79
2023/09/10 03:42:43;;;;;;;;;;;;;;;;;;4915045;29;20048;-79
2023/09/10 03:45:09;;;;;;;26.05;18.83;;;;;;;;;;4899075;29;19930;-79
2023/09/10 03:47:38;;;;;;;28.63;20.02;;;;;;;;;;4914510;29;20060;-79
2023/09/10 03:50:05;;;;;;;31.10;20.30;;;;;;;;;;4915235;29;20087;-79
2023/09/10 03:52:31;;;;;;;29.40;21.33;;;;;;;;;;4883685;29;20045;-80
2023/09/10 03:54:57;;;;;;;;;;;;;;;;;;4887147;29;20076;-79
2023/09/10 03:57:23;;;;;;;29.45;21.45;;;;;;;;;;4933118;29;19926;-79
2023/09/10 03:59:49;;;;;;;;;;;;;;;;;;4914831;29;20048;-79
2023/09/10 04:02:15;;;;;;;32.60;23.63;;;;;;;;;;4914766;29;19927;-81
2023/09/10 04:04:41;;;;;;;;;;;;;;;;;;4910839;29;20506;-80
2023/09/10 04:07:07;;;;;;;27.43;20.27;;;;;;;;;;4926601;29;19923;-79
2023/09/10 04:09:33;;;;;;;;;;;;;;;;;;4898834;29;20060;-79
2023/09/10 04:12:00;;;;;;;28.65;21.55;;;;;;;;;;4898981;29;19934;-80
2023/09/10 04:14:27;;;;;;;29.67;21.15;;;;;;;;;;4913589;29;20048;-79
2023/09/10 04:16:53;;;;;;;29.88;20.40;;;;;;;;;;4922503;29;20131;-79
2023/09/10 04:19:18;;;;;;;;;;;;;;;;;;4902519;29;20043;-79
2023/09/10 04:21:45;;;;;;;27.67;19.40;;;;;;;;;;4925466;29;19922;-80
2023/09/10 04:24:10;;;;;;;;;;;;;;;;;;4902568;29;20569;-79
2023/09/10 04:26:37;;;;;;;25.13;18.23;;;;;;;;;;4932903;29;20074;-80
2023/09/10 04:29:02;;;;;;;;;;;;;;;;;;4933408;29;20540;-80
2023/09/10 04:31:30;;;;;;;23.35;17.90;;;;;;;;;;4932478;29;19923;-79
2023/09/10 04:33:56;;;;;;;21.42;16.05;;;;;;;;;;4918680;29;20718;-79
2023/09/10 04:36:22;;;;;;;;;;;;;;;;;;4915847;29;20066;-80
2023/09/10 04:38:48;;;;;;;18.25;14.07;;;;;;;;;;4915733;29;20284;-79
2023/09/10 04:41:14;;;;;;;;;;;;;;;;;;4901786;29;20052;-79
2023/09/10 04:43:40;;;;;;;18.48;14.07;;;;;;;;;;4915895;29;19926;-79
2023/09/10 04:46:06;;;;;;;;;;;;;;;;;;4933531;29;20666;-79
2023/09/10 04:48:32;;;;;;;25.05;17.33;;;;;;;;;;4916909;29;19923;-79
2023/09/10 04:50:58;;;;;;;;;;;;;;;;;;4933806;29;20039;-78
2023/09/10 04:53:24;;;;;;;30.77;21.55;;;;;;;;;;4929111;29;19973;-79
2023/09/10 04:55:50;;;;;;;;;;;;;;;;;;4898812;29;20048;-78
2023/09/10 04:58:16;;;;;;;32.97;23.98;;;;;;;;;;4900514;29;19955;-79
2023/09/10 05:00:41;;;;;;;;;;;;;;;;;;4889704;29;20083;-79
2023/09/10 05:03:08;;;;;;;37.13;25.50;;;;;;;;;;4914349;29;19986;-79
2023/09/10 05:05:34;;;;;;;42.95;29.67;;;;;;;;;;4891060;29;20048;-79
2023/09/10 05:08:00;;;;;;;;;;;;;;;;;;4899163;29;20494;-79
2023/09/10 05:10:26;;;;;;;40.50;28.33;;;;;;;;;;4915464;29;19981;-79
2023/09/10 05:12:52;;;;;;;;;;;;;;;;;;4917452;29;20055;-79
2023/09/10 05:15:18;;;;;;;40.55;26.70;;;;;;;;;;4916749;29;19978;-79
2023/09/10 05:17:44;;;;;;;;;;;;;;;;;;4916982;29;20525;-78
2023/09/10 05:20:10;;;;;;;41.65;27.58;;;;;;;;;;4932692;29;19923;-79
2023/09/10 05:22:36;;;;;;;40.38;27.70;;;;;;;;;;4913239;29;20192;-79
2023/09/10 05:25:02;;;;;;;;;;;;;;;;;;4907926;29;20050;-79
2023/09/10 05:27:28;;;;;;;39.30;28.43;;;;;;;;;;4896945;29;19923;-79
2023/09/10 05:29:54;;;;;;;;;;;;;;;;;;4900490;29;20058;-79
2023/09/10 05:32:20;;;;;;;41.05;28.00;;;;;;;;;;4916995;29;19922;-78
2023/09/10 05:34:46;;;;;;;;;;;;;;;;;;4912193;29;20645;-78
2023/09/10 05:37:12;;;;;;;40.78;27.92;;;;;;;;;;4917389;29;19982;-79
2023/09/10 05:39:38;;;;;;;39.88;28.08;;;;;;;;;;4900061;29;20056;-79
2023/09/10 05:42:04;;;;;;;;;;;;;;;;;;4916955;29;20092;-79
2023/09/10 05:44:30;;;;;;;38.78;27.50;;;;;;;;;;4901035;29;19970;-79
2023/09/10 05:46:58;;;;;;;;;;;;;;;;;;4888256;29;20156;-79
2023/09/10 05:49:24;;;;;;;41.83;28.88;;;;;;;;;;4913137;29;19923;-78
2023/09/10 05:51:50;;;;;;;;;;;;;;;;;;4919829;29;20044;-79
2023/09/10 05:54:16;;;;;;;37.53;27.05;;;;;;;;;;4913610;29;20021;-79
2023/09/10 05:56:42;;;;;;;;;;;;;;;;;;4919989;29;20055;-80
2023/09/10 05:59:08;;;;;;;40.47;28.52;;;;;;;;;;4935365;29;19929;-79
2023/09/10 06:01:34;;;;;;;43.45;29.95;;;;;;;;;;4904026;29;20135;-79
2023/09/10 06:04:00;;;;;;;;;;;;;;;;;;4920405;29;20420;-79
2023/09/10 06:06:27;;;;;;;47.72;32.10;;;;;;;;;;4932698;29;20021;-79
2023/09/10 06:08:53;;;;;;;44.75;31.67;;;;;;;;;;4920297;29;20059;-79
2023/09/10 06:11:20;;;;;;;50.20;32.60;;;;;;;;;;4894405;29;20099;-79
2023/09/10 06:13:46;;;;;;;;;;;;;;;;;;4891003;29;20051;-79
2023/09/10 06:16:12;;;;;;;53.92;35.00;;;;;;;;;;4917941;29;19930;-79
2023/09/10 06:18:38;;;;;;;;;;;;;;;;;;4917143;29;20055;-79
2023/09/10 06:21:04;;;;;;;51.17;35.80;;;;;;;;;;4916533;29;19923;-79
2023/09/10 06:23:30;;;;;;;54.10;37.25;;;;;;;;;;4916718;29;20040;-82
2023/09/10 06:25:56;;;;;;;;;;;;;;;;;;4914786;29;20044;-79
2023/09/10 06:28:24;;;;;;;53.20;36.40;;;;;;;;;;4906439;29;19935;-79
2023/09/10 06:30:50;;;;;;;54.22;37.15;;;;;;;;;;4919140;29;20673;-78
2023/09/10 06:33:16;;;;;;;56.10;38.47;;;;;;;;;;4892982;29;20052;-79
2023/09/10 06:35:42;;;;;;;56.72;38.53;;;;;;;;;;4930927;29;20044;-78
2023/09/10 06:38:08;;;;;;;;;;;;;;;;;;4885414;29;20055;-79
2023/09/10 06:40:36;;;;;;;67.10;42.22;;;;;;;;;;4915924;29;20373;-79
2023/09/10 06:43:04;;;;;;;75.55;50.42;;;;;;;;;;4915437;29;20045;-79
2023/09/10 06:45:30;;;;;;;77.03;53.25;;;;;;;;;;4926129;29;20513;-79
2023/09/10 06:47:56;;;;;;;82.35;57.15;;;;;;;;;;4903380;29;20083;-79
2023/09/10 06:50:22;;;;;;;;;;;;;;;;;;4918471;29;20048;-79
2023/09/10 06:52:48;;;;;;;70.85;48.90;;;;;;;;;;4935052;29;19970;-79
2023/09/10 06:55:14;;;;;;;;;;;;;;;;;;4894301;29;20094;-80
2023/09/10 06:57:40;;;;;;;79.88;51.30;;;;;;;;;;4917768;29;19966;-79
2023/09/10 07:00:07;;;;;;;36.53;26.48;;;;;;;;;;4933704;29;20055;-79
2023/09/10 07:02:33;;;;;;;35.05;27.20;;;;;;;;;;4885060;29;20095;-79
2023/09/10 07:04:59;;;;;;;;;;;;;;;;;;4918869;29;20570;-79
2023/09/10 07:07:25;;;;;;;38.47;28.23;;;;;;;;;;4918260;29;19922;-79
2023/09/10 07:09:51;;;;;;;50.20;36.90;;;;;;;;;;4915226;29;20059;-79
2023/09/10 07:12:19;;;;;;;35.83;25.85;;;;;;;;;;4914081;29;20128;-80
2023/09/10 07:14:49;;;;;;;48.42;35.03;;;;;;;;;;4914846;29;20052;-79
2023/09/10 07:17:15;;;;;;;57.03;39.90;;;;;;;;;;4927746;29;20094;-79
2023/09/10 07:19:41;;;;;;;64.38;44.30;;;;;;;;;;4918837;29;20123;-79
2023/09/10 07:22:07;;;;;;;61.90;43.58;;;;;;;;;;4933688;29;20052;-81
2023/09/10 07:24:39;;;;;;;59.80;43.47;;;;;;;;;;4918484;29;20051;-80
2023/09/10 07:27:06;;;;;;;45.72;31.08;;;;;;;;;;4935168;29;20063;-80
2023/09/10 07:29:32;;;;;;;54.38;38.70;;;;;;;;;;4918221;29;20055;-81
2023/09/10 07:31:58;;;;;;;54.95;40.88;;;;;;;;;;4931758;29;20058;-67
2023/09/10 07:34:24;;;;;;;;;;;;;;;;;;4935642;29;20052;-78
2023/09/10 07:36:51;;;;;;;40.70;31.13;;;;;;;;;;4918405;29;19926;-72
2023/09/10 07:39:19;;;;;;;27.90;19.92;;;;;;;;;;4934596;29;20098;-71
2023/09/10 07:41:45;;;;;;;23.60;18.83;;;;;;;;;;4934695;29;20088;-68
2023/09/10 07:44:11;;;;;;;48.38;36.30;;;;;;;;;;4934103;29;20048;-69
2023/09/10 07:46:37;;;;;;;48.83;37.03;;;;;;;;;;4935520;29;20497;-82
2023/09/10 07:49:04;;;;;;;44.45;33.10;;;;;;;;;;4918473;29;20051;-81
2023/09/10 07:51:37;;;;;;;47.03;36.58;;;;;;;;;;4899944;29;20051;-81
2023/09/10 07:54:04;;;;;;;36.15;27.67;;;;;;;;;;4899254;29;20048;-69
2023/09/10 07:56:30;;;;;;;31.80;23.45;;;;;;;;;;4918377;29;20052;-69
2023/09/10 07:58:56;;;;;;;43.13;34.08;;;;;;;;;;4914554;29;20052;-69
2023/09/10 08:01:23;;;;;;;42.78;31.60;;;;;;;;;;4920602;29;20079;-69
2023/09/10 08:03:49;;;;;;;44.47;33.33;;;;;;;;;;4934463;29;20095;-69
2023/09/10 08:06:15;;;;;;;43.42;33.72;;;;;;;;;;4935018;29;20066;-68
2023/09/10 08:08:42;;;;;;;43.75;32.08;;;;;;;;;;4934443;29;20405;-71
2023/09/10 08:11:08;;;;;;;42.90;33.75;;;;;;;;;;4932355;29;20043;-82
2023/09/10 08:13:34;;;;;;;42.03;31.52;;;;;;;;;;4928932;29;20134;-72
2023/09/10 08:16:00;;;;;;;40.42;31.02;;;;;;;;;;4933126;29;20047;-72
2023/09/10 08:18:26;;;;;;;42.65;30.55;;;;;;;;;;4933291;29;20130;-77
2023/09/10 08:20:54;;;;;;;32.33;24.70;;;;;;;;;;4915260;29;20111;-75
2023/09/10 08:23:20;;;;;;;37.28;29.13;;;;;;;;;;4930001;29;20090;-77
2023/09/10 08:25:46;;;;;;;37.60;29.20;;;;;;;;;;4933650;29;20081;-81
2023/09/10 08:28:12;;;;;;;34.70;25.33;;;;;;;;;;4932254;29;20058;-81
2023/09/10 08:30:38;;;;;;;42.72;30.35;;;;;;;;;;4932276;29;20044;-80
2023/09/10 08:33:05;;;;;;;30.50;22.70;;;;;;;;;;4917073;29;20112;-79
2023/09/10 08:35:52;;;;;;;24.80;17.95;;;;;;;;;;4933320;29;20052;-80
2023/09/10 08:38:18;;;;;;;25.70;19.30;;;;;;;;;;4932245;29;20063;-81
2023/09/10 08:41:04;;;;;;;40.22;30.48;;;;;;;;;;4932902;29;20478;-80
2023/09/10 08:43:36;;;;;;;16.42;10.73;;;;;;;;;;4914031;29;20060;-79
2023/09/10 08:46:04;;;;;;;11.23;8.23;;;;;;;;;;4932356;29;20134;-80
2023/09/10 08:48:31;;;;;;;22.77;16.17;;;;;;;;;;4917595;29;20056;-79
2023/09/10 08:50:57;;;;;;;19.88;13.85;;;;;;;;;;4932914;29;20498;-74
2023/09/10 08:53:23;;;;;;;27.85;20.23;;;;;;;;;;4934183;29;20052;-77
2023/09/10 08:55:50;;;;;;;19.42;14.85;;;;;;;;;;4917587;29;20050;-82
2023/09/10 08:58:16;;;;;;;16.23;11.27;;;;;;;;;;4900512;29;20063;-79
2023/09/10 09:00:43;;;;;;;20.35;12.73;;;;;;;;;;4932460;29;20095;-78
2023/09/10 09:03:09;;;;;;;18.60;14.23;;;;;;;;;;4932343;29;20119;-80
2023/09/10 09:05:36;;;;;;;21.17;15.88;;;;;;;;;;4932590;29;20055;-81
2023/09/10 09:08:06;;;;;;;24.80;18.52;;;;;;;;;;4931244;29;20047;-79
2023/09/10 09:10:33;;;;;;;29.15;22.08;;;;;;;;;;4932239;29;20043;-74
2023/09/10 09:13:04;;;;;;;29.73;20.23;;;;;;;;;;4931798;29;20540;-80
2023/09/10 09:15:31;;;;;;;28.25;20.45;;;;;;;;;;4924729;29;20046;-81
2023/09/10 09:17:58;;;;;;;26.88;19.83;;;;;;;;;;4925490;29;20054;-79
2023/09/10 09:20:27;;;;;;;22.38;16.85;;;;;;;;;;4931755;29;20080;-78
2023/09/10 09:23:00;;;;;;;23.75;17.13;;;;;;;;;;4913807;29;20102;-81
2023/09/10 09:25:41;;;;;;;23.73;18.48;;;;;;;;;;4930718;29;20052;-80
2023/09/10 09:28:09;;;;;;;16.15;11.48;;;;;;;;;;4934897;29;20071;-82
2023/09/10 09:30:35;;;;;;;16.95;12.60;;;;;;;;;;4903380;29;20083;-81
2023/09/10 09:33:02;;;;;;;20.85;14.40;;;;;;;;;;4919935;29;20074;-82
2023/09/10 09:35:45;;;;;;;20.92;12.40;;;;;;;;;;4920334;29;20063;-81
2023/09/10 09:38:13;;;;;;;24.38;15.88;;;;;;;;;;4934490;29;20111;-74
2023/09/10 09:40:40;;;;;;;25.35;16.33;;;;;;;;;;4922558;29;20063;-77
2023/09/10 09:43:10;;;;;;;19.92;12.38;;;;;;;;;;4916575;29;20048;-80
2023/09/10 09:45:36;;;;;;;12.43;7.55;;;;;;;;;;4920284;29;20497;-78
2023/09/10 09:48:06;;;;;;;12.23;8.82;;;;;;;;;;4919353;29;20056;-77
2023/09/10 09:50:32;;;;;;;24.67;16.27;;;;;;;;;;4935239;29;20046;-76
2023/09/10 09:52:58;;;;;;;20.30;14.75;;;;;;;;;;4935824;29;20051;-76
2023/09/10 09:55:26;;;;;;;21.35;15.48;;;;;;;;;;4916228;29;20063;-79
2023/09/10 09:57:52;;;;;;;15.20;10.82;;;;;;;;;;4927820;29;20102;-74
2023/09/10 10:00:18;;;;;;;22.70;16.58;;;;;;;;;;4934583;29;20047;-75
2023/09/10 10:02:44;;;;;;;17.15;12.75;;;;;;;;;;4919390;29;20734;-74
2023/09/10 10:05:12;;;;;;;17.00;12.00;;;;;;;;;;4934966;29;20082;-74
2023/09/10 10:07:43;;;;;;;16.60;12.02;;;;;;;;;;4916832;29;20059;-74
2023/09/10 10:10:14;;;;;;;21.55;15.40;;;;;;;;;;4916436;29;20099;-77
2023/09/10 10:12:41;;;;;;;17.27;13.95;;;;;;;;;;4916483;29;20048;-77
2023/09/10 10:15:08;;;;;;;18.05;12.63;;;;;;;;;;4899869;29;20077;-76
2023/09/10 10:17:35;;;;;;;18.02;14.90;;;;;;;;;;4917243;29;20044;-77
2023/09/10 10:20:04;;;;;;;22.33;13.65;;;;;;;;;;4916232;29;20603;-80
2023/09/10 10:22:31;;;;;;;17.73;14.15;;;;;;;;;;4930073;29;20047;-77
2023/09/10 10:24:57;;;;;;;18.52;13.88;;;;;;;;;;4919258;29;20051;-77
2023/09/10 10:27:25;;;;;;;16.88;11.73;;;;;;;;;;4918514;29;20094;-73
2023/09/10 10:29:51;;;;;;;20.30;11.02;;;;;;;;;;4932839;29;20378;-74
2023/09/10 10:32:22;;;;;;;19.60;14.88;;;;;;;;;;4931830;29;20509;-75
2023/09/10 10:34:56;;;;;;;20.02;13.27;;;;;;;;;;4924139;29;20044;-72
2023/09/10 10:37:28;;;;;;;16.50;12.57;;;;;;;;;;4933927;29;20043;-73
2023/09/10 10:40:06;;;;;;;20.08;13.95;;;;;;;;;;4919068;29;20091;-72
2023/09/10 10:42:46;;;;;;;13.93;8.95;;;;;;;;;;4915557;29;20044;-73
2023/09/10 10:45:15;;;;;;;19.35;13.57;;;;;;;;;;4911933;29;20581;-74
2023/09/10 10:47:42;;;;;;;16.08;10.75;;;;;;;;;;4935479;29;20102;-75
2023/09/10 10:50:10;;;;;;;17.55;10.77;;;;;;;;;;4931574;29;20041;-74
2023/09/10 10:52:38;;;;;;;10.50;6.40;;;;;;;;;;4916365;29;20059;-77
2023/09/10 10:55:05;;;;;;;20.38;12.73;;;;;;;;;;4899973;29;20059;-78
2023/09/10 10:57:31;;;;;;;19.02;12.82;;;;;;;;;;4900230;29;20052;-74
2023/09/10 10:59:57;;;;;;;20.65;14.00;;;;;;;;;;4915229;29;20143;-82
2023/09/10 11:02:24;;;;;;;16.40;12.23;;;;;;;;;;4899968;29;20056;-78
2023/09/10 11:04:54;;;;;;;17.33;12.10;;;;;;;;;;4919087;29;20727;-84
2023/09/10 11:07:20;;;;;;;24.85;13.77;;;;;;;;;;4914878;29;20044;-81
2023/09/10 11:09:47;;;;;;;15.90;9.30;;;;;;;;;;4917598;29;20075;-83
2023/09/10 11:12:14;;;;;;;13.70;9.70;;;;;;;;;;4933352;29;20052;-82
2023/09/10 11:14:59;;;;;;;17.58;11.80;;;;;;;;;;4933984;29;20054;-83
2023/09/10 11:17:25;;;;;;;17.90;13.25;;;;;;;;;;4916132;29;20102;-84
2023/09/10 11:19:51;;;;;;;15.40;10.15;;;;;;;;;;4902491;29;20055;-82
2023/09/10 11:22:18;;;;;;;21.30;11.93;;;;;;;;;;4932927;29;20039;-85
2023/09/10 11:24:44;;;;;;;16.10;8.20;;;;;;;;;;4917677;29;20087;-80
2023/09/10 11:27:21;;;;;;;9.75;6.47;;;;;;;;;;4916715;29;20048;-83
2023/09/10 11:30:03;;;;;;;10.85;7.90;;;;;;;;;;4919966;29;20048;-83
2023/09/10 11:32:29;;;;;;;16.63;10.05;;;;;;;;;;4919222;29;20071;-83
2023/09/10 11:35:14;;;;;;;17.60;11.93;;;;;;;;;;4915273;29;20410;-84
2023/09/10 11:37:41;;;;;;;18.17;10.10;;;;;;;;;;4930813;29;20520;-84
2023/09/10 11:40:08;;;;;;;11.32;6.10;;;;;;;;;;4918154;29;20168;-82
2023/09/10 11:42:37;;;;;;;14.95;9.77;;;;;;;;;;4902177;29;20094;-84
2023/09/10 11:45:04;;;;;;;14.95;7.30;;;;;;;;;;4933272;29;20048;-84
2023/09/10 11:47:30;;;;;;;10.85;5.78;;;;;;;;;;4933221;29;20154;-77
2023/09/10 11:50:16;;;;;;;17.33;7.70;;;;;;;;;;4932083;29;20485;-80
2023/09/10 11:52:42;;;;;;;;;;;;;;;;;;4900201;29;20118;-83
2023/09/10 11:55:11;;;;;;;13.15;7.03;;;;;;;;;;4924117;29;19930;-82
2023/09/10 11:57:38;;;;;;;15.20;8.32;;;;;;;;;;4898931;29;20056;-83
2023/09/10 12:00:05;;;;;;;11.35;5.15;;;;;;;;;;4898275;29;20402;-82
2023/09/10 12:02:31;;;;;;;21.02;9.13;;;;;;;;;;4926403;29;20168;-82
2023/09/10 12:05:02;;;;;;;22.85;8.15;;;;;;;;;;4902375;29;20051;-82
2023/09/10 12:07:28;;;;;;;13.23;5.70;;;;;;;;;;4917740;29;20071;-82
2023/09/10 12:09:54;;;;;;;9.05;4.63;;;;;;;;;;4915726;29;20076;-82
2023/09/10 12:12:22;;;;;;;13.32;7.80;;;;;;;;;;4913933;29;20159;-82
2023/09/10 12:14:48;;;;;;;14.40;7.57;;;;;;;;;;4914278;29;20051;-83
2023/09/10 12:17:14;;;;;;;21.40;8.55;;;;;;;;;;4900906;29;20054;-82
2023/09/10 12:19:41;;;;;;;16.27;5.47;;;;;;;;;;4913185;29;20482;-82
2023/09/10 12:22:10;;;;;;;24.17;6.68;;;;;;;;;;4925826;29;20513;-82
2023/09/10 12:24:37;;;;;;;22.63;7.10;;;;;;;;;;4917671;29;20110;-82
2023/09/10 12:27:03;;;;;;;15.77;5.53;;;;;;;;;;4917023;29;20458;-81
2023/09/10 12:29:29;;;;;;;13.85;5.05;;;;;;;;;;4916181;29;20079;-82
2023/09/10 12:31:57;;;;;;;24.50;7.68;;;;;;;;;;4930524;29;20107;-83
2023/09/10 12:34:26;;;;;;;18.85;5.97;;;;;;;;;;4898110;29;20052;-82
2023/09/10 12:36:52;;;;;;;18.30;7.57;;;;;;;;;;4900541;29;20054;-82
2023/09/10 12:39:20;;;;;;;23.25;7.20;;;;;;;;;;4930181;29;20091;-82
2023/09/10 12:41:50;;;;;;;19.40;7.15;;;;;;;;;;4909523;29;20059;-81
2023/09/10 12:44:16;;;;;;;18.80;7.53;;;;;;;;;;4925361;29;20059;-80
2023/09/10 12:46:42;;;;;;;8.85;3.90;;;;;;;;;;4923369;29;20447;-82
2023/09/10 12:49:08;;;;;;;9.07;3.97;;;;;;;;;;4902019;29;20130;-82
2023/09/10 12:51:34;;;;;;;13.15;5.38;;;;;;;;;;4916895;29;20238;-82
2023/09/10 12:54:01;;;;;;;23.05;7.43;;;;;;;;;;4929373;29;20078;-82
2023/09/10 12:56:29;;;;;;;8.02;3.92;;;;;;;;;;4917153;29;20110;-82
2023/09/10 12:58:56;;;;;;;20.77;6.35;;;;;;;;;;4911075;29;20081;-82
2023/09/10 13:01:25;;;;;;;7.93;3.35;;;;;;;;;;4936370;29;20060;-82
2023/09/10 13:03:51;;;;;;;18.52;5.75;;;;;;;;;;4918957;29;20533;-81
2023/09/10 13:06:18;;;;;;;19.60;7.20;;;;;;;;;;4902616;29;20055;-80
2023/09/10 13:08:44;;;;;;;8.77;3.47;;;;;;;;;;4918561;29;20096;-81
2023/09/10 13:11:10;;;;;;;16.02;5.45;;;;;;;;;;4904922;29;20052;-82
2023/09/10 13:13:36;;;;;;;13.07;5.10;;;;;;;;;;4935892;29;20094;-82
2023/09/10 13:16:02;;;;;;;14.30;5.53;;;;;;;;;;4921426;29;20460;-82
2023/09/10 13:18:28;;;;;;;20.50;5.70;;;;;;;;;;4921186;29;20048;-82
2023/09/10 13:20:54;;;;;;;10.45;4.85;;;;;;;;;;4937327;29;20047;-82
2023/09/10 13:23:20;;;;;;;15.80;5.75;;;;;;;;;;4935824;29;20094;-81
2023/09/10 13:25:46;;;;;;;14.85;5.43;;;;;;;;;;4917472;29;20055;-82
2023/09/10 13:28:12;;;;;;;28.88;6.88;;;;;;;;;;4917844;29;20087;-82
2023/09/10 13:30:39;;;;;;;31.30;7.82;;;;;;;;;;4901398;29;20060;-83
2023/09/10 13:33:05;;;;;;;17.08;5.43;;;;;;;;;;4902842;29;20509;-81
2023/09/10 13:35:32;;;;;;;24.40;7.43;;;;;;;;;;4920736;29;20075;-82
2023/09/10 13:37:58;;;;;;;20.30;7.05;;;;;;;;;;4921216;29;20399;-82
2023/09/10 13:40:27;;;;;;;31.30;7.38;;;;;;;;;;4920213;29;20102;-81
2023/09/10 13:42:53;;;;;;;14.55;4.22;;;;;;;;;;4920555;29;20131;-82
2023/09/10 13:45:20;;;;;;;26.73;6.97;;;;;;;;;;4903886;29;20054;-80
2023/09/10 13:47:46;;;;;;;23.23;5.82;;;;;;;;;;4926952;29;20056;-82
2023/09/10 13:50:12;;;;;;;24.73;5.70;;;;;;;;;;4917880;29;20047;-82
2023/09/10 13:52:42;;;;;;;10.10;4.15;;;;;;;;;;4934242;29;20055;-81
2023/09/10 13:55:09;;;;;;;12.27;4.57;;;;;;;;;;4920685;29;20083;-82
2023/09/10 13:57:38;;;;;;;19.55;6.63;;;;;;;;;;4920112;29;20052;-81
2023/09/10 14:00:08;;;;;;;13.88;3.58;;;;;;;;;;4920058;29;20043;-82
2023/09/10 14:02:35;;;;;;;16.00;5.28;;;;;;;;;;4920677;29;20044;-82
2023/09/10 14:05:01;;;;;;;18.15;5.07;;;;;;;;;;4904865;29;20059;-81
2023/09/10 14:07:27;;;;;;;29.02;6.78;;;;;;;;;;4918668;29;20111;-82
2023/09/10 14:09:53;;;;;;;30.00;7.13;;;;;;;;;;4909226;29;20052;-82
2023/09/10 14:12:21;;;;;;;19.95;5.68;;;;;;;;;;4915950;29;20084;-82
2023/09/10 14:14:47;;;;;;;18.20;5.72;;;;;;;;;;4900392;29;20054;-81
2023/09/10 14:17:13;;;;;;;11.00;4.32;;;;;;;;;;4917577;29;20103;-82
2023/09/10 14:19:39;;;;;;;18.15;5.28;;;;;;;;;;4885625;29;20054;-82
2023/09/10 14:22:05;;;;;;;15.43;4.30;;;;;;;;;;4912271;29;20043;-81
2023/09/10 14:24:31;;;;;;;7.35;3.45;;;;;;;;;;4933846;29;20063;-83
2023/09/10 14:26:58;;;;;;;14.80;4.63;;;;;;;;;;4919006;29;20040;-81
2023/09/10 14:29:24;;;;;;;26.85;6.72;;;;;;;;;;4917806;29;20054;-80
2023/09/10 14:31:55;;;;;;;19.73;5.28;;;;;;;;;;4935987;29;20081;-77
2023/09/10 14:34:21;;;;;;;23.83;6.28;;;;;;;;;;4935941;29;20051;-79
2023/09/10 14:36:47;;;;;;;23.65;6.85;;;;;;;;;;4917313;29;20155;-87
2023/09/10 14:39:14;;;;;;;27.15;5.68;;;;;;;;;;4900952;29;20060;-80